createdAt,value
2018-04-01T00:00:21.937Z,6.30
2018-04-01T00:02:49.304Z,6.20
2018-04-01T00:05:17.400Z,6.20
2018-04-01T00:07:44.779Z,6.20
2018-04-01T00:10:12.157Z,6.20
2018-04-01T00:12:39.508Z,6.10
2018-04-01T00:15:06.951Z,6.10
2018-04-01T00:17:34.312Z,6.10
2018-04-01T00:20:01.709Z,6.10
2018-04-01T00:22:29.026Z,6.00
2018-04-01T00:24:56.384Z,6.00
2018-04-01T00:27:23.726Z,6.10
2018-04-01T00:29:51.128Z,6.10
2018-04-01T00:32:18.480Z,6.10
2018-04-01T00:34:45.910Z,6.10
2018-04-01T00:37:13.267Z,6.10
2018-04-01T00:39:40.648Z,6.10
2018-04-01T00:42:08.025Z,6.10
2018-04-01T00:44:35.361Z,6.10
2018-04-01T00:47:02.769Z,6.00
2018-04-01T00:49:30.121Z,6.00
2018-04-01T00:51:57.512Z,6.00
2018-04-01T00:54:24.858Z,6.00
2018-04-01T00:56:52.215Z,5.90
2018-04-01T00:59:19.561Z,5.90
2018-04-01T01:01:46.917Z,5.90
2018-04-01T01:04:14.383Z,5.90
2018-04-01T01:06:41.736Z,5.90
2018-04-01T01:09:09.151Z,5.90
2018-04-01T01:11:36.483Z,5.90
2018-04-01T01:14:03.840Z,5.90
2018-04-01T01:16:31.189Z,5.90
2018-04-01T01:18:58.543Z,5.90
2018-04-01T01:21:25.903Z,5.90
2018-04-01T01:23:53.260Z,5.90
2018-04-01T01:26:20.622Z,5.90
2018-04-01T01:28:48.098Z,5.90
2018-04-01T01:31:15.460Z,5.90
2018-04-01T01:33:42.792Z,5.90
2018-04-01T01:36:10.148Z,5.90
2018-04-01T01:38:37.510Z,5.90
2018-04-01T01:41:04.922Z,5.90
2018-04-01T01:43:32.283Z,5.90
2018-04-01T01:45:59.635Z,5.90
2018-04-01T01:48:27.750Z,5.90
2018-04-01T01:50:55.097Z,5.90
2018-04-01T01:53:22.485Z,5.90
2018-04-01T01:55:49.847Z,5.90
2018-04-01T01:58:17.344Z,5.90
2018-04-01T02:00:44.685Z,5.90
2018-04-01T02:03:12.057Z,5.90
2018-04-01T02:05:39.397Z,5.90
2018-04-01T02:08:06.755Z,5.90
2018-04-01T02:10:34.109Z,5.90
2018-04-01T02:13:01.467Z,6.00
2018-04-01T02:15:29.488Z,6.00
2018-04-01T02:17:56.821Z,6.00
2018-04-01T02:20:24.184Z,6.00
2018-04-01T02:22:52.080Z,6.10
2018-04-01T02:25:19.442Z,6.10
2018-04-01T02:27:46.806Z,6.10
2018-04-01T02:30:14.932Z,6.00
2018-04-01T02:32:42.294Z,6.00
2018-04-01T02:35:09.644Z,6.00
2018-04-01T02:37:36.992Z,6.00
2018-04-01T02:40:04.390Z,6.00
2018-04-01T02:42:31.693Z,6.00
2018-04-01T02:44:59.040Z,6.00
2018-04-01T02:47:26.408Z,5.90
2018-04-01T02:49:53.857Z,5.90
2018-04-01T02:52:21.201Z,6.00
2018-04-01T02:54:48.557Z,6.00
2018-04-01T02:57:15.893Z,6.00
2018-04-01T02:59:44.045Z,6.00
2018-04-01T03:02:11.386Z,5.90
2018-04-01T03:04:38.801Z,5.90
2018-04-01T03:07:06.068Z,5.80
2018-04-01T03:09:33.443Z,5.70
2018-04-01T03:12:00.791Z,5.70
2018-04-01T03:14:28.118Z,5.60
2018-04-01T03:16:55.475Z,5.50
2018-04-01T03:19:22.851Z,5.50
2018-04-01T03:21:50.216Z,5.50
2018-04-01T03:24:17.575Z,5.40
2018-04-01T03:26:44.944Z,5.40
2018-04-01T03:29:12.285Z,5.40
2018-04-01T03:31:39.647Z,5.40
2018-04-01T03:34:07.019Z,5.40
2018-04-01T03:36:34.376Z,5.40
2018-04-01T03:39:02.494Z,5.30
2018-04-01T03:41:29.834Z,5.30
2018-04-01T03:43:57.180Z,5.30
2018-04-01T03:46:24.522Z,5.30
2018-04-01T03:48:51.894Z,5.30
2018-04-01T03:51:19.223Z,5.20
2018-04-01T03:53:46.612Z,5.20
2018-04-01T03:56:13.957Z,5.20
2018-04-01T03:58:41.470Z,5.20
2018-04-01T04:01:08.826Z,5.20
2018-04-01T04:03:36.162Z,5.20
2018-04-01T04:06:03.516Z,5.20
2018-04-01T04:08:30.847Z,5.20
2018-04-01T04:10:58.208Z,5.20
2018-04-01T04:13:25.552Z,5.20
2018-04-01T04:15:53.427Z,5.20
2018-04-01T04:18:20.783Z,5.20
2018-04-01T04:20:48.160Z,5.20
2018-04-01T04:23:15.509Z,5.10
2018-04-01T04:25:42.851Z,5.10
2018-04-01T04:28:10.203Z,5.10
2018-04-01T04:30:37.539Z,5.10
2018-04-01T04:33:04.966Z,5.00
2018-04-01T04:35:32.487Z,5.00
2018-04-01T04:37:59.862Z,5.00
2018-04-01T04:40:27.182Z,5.00
2018-04-01T04:42:54.537Z,5.00
2018-04-01T04:45:21.893Z,5.00
2018-04-01T04:47:49.240Z,5.00
2018-04-01T04:50:16.597Z,5.10
2018-04-01T04:52:43.935Z,5.10
2018-04-01T04:55:11.292Z,5.10
2018-04-01T04:57:38.647Z,5.10
2018-04-01T05:00:06.107Z,5.20
2018-04-01T05:02:33.533Z,5.20
2018-04-01T05:05:00.888Z,5.20
2018-04-01T05:07:28.233Z,5.30
2018-04-01T05:09:56.344Z,5.30
2018-04-01T05:12:23.709Z,5.30
2018-04-01T05:14:51.059Z,5.30
2018-04-01T05:17:18.416Z,5.40
2018-04-01T05:19:45.781Z,5.40
2018-04-01T05:22:13.620Z,5.40
2018-04-01T05:24:40.996Z,5.50
2018-04-01T05:27:08.338Z,5.50
2018-04-01T05:29:35.708Z,5.50
2018-04-01T05:32:03.071Z,5.60
2018-04-01T05:34:30.461Z,5.60
2018-04-01T05:36:57.880Z,5.60
2018-04-01T05:39:26.064Z,5.70
2018-04-01T05:41:53.674Z,5.60
2018-04-01T05:44:21.110Z,5.70
2018-04-01T05:46:48.475Z,5.70
2018-04-01T05:49:15.803Z,5.70
2018-04-01T05:51:43.150Z,5.80
2018-04-01T05:54:10.649Z,5.80
2018-04-01T05:56:38.015Z,5.90
2018-04-01T05:59:05.359Z,5.90
2018-04-01T06:01:32.832Z,6.00
2018-04-01T06:04:00.186Z,6.00
2018-04-01T06:06:27.526Z,6.10
2018-04-01T06:08:54.925Z,6.10
2018-04-01T06:11:22.337Z,6.10
2018-04-01T06:13:49.693Z,6.10
2018-04-01T06:16:17.039Z,6.20
2018-04-01T06:18:45.251Z,6.40
2018-04-01T06:21:13.406Z,6.40
2018-04-01T06:23:41.078Z,6.40
2018-04-01T06:26:08.715Z,6.50
2018-04-01T06:28:36.100Z,6.40
2018-04-01T06:31:03.543Z,6.40
2018-04-01T06:33:30.887Z,6.40
2018-04-01T06:35:58.257Z,6.40
2018-04-01T06:38:25.665Z,6.40
2018-04-01T06:40:53.140Z,6.40
2018-04-01T06:43:20.476Z,6.50
2018-04-01T06:45:47.852Z,6.50
2018-04-01T06:48:15.542Z,6.40
2018-04-01T06:50:43.000Z,6.40
2018-04-01T06:53:10.431Z,6.40
2018-04-01T06:55:37.800Z,6.40
2018-04-01T06:58:05.267Z,6.30
2018-04-01T07:00:32.603Z,6.30
2018-04-01T07:02:59.950Z,6.20
2018-04-01T07:05:28.095Z,6.10
2018-04-01T07:07:56.355Z,6.10
2018-04-01T07:10:23.742Z,6.10
2018-04-01T07:12:51.084Z,6.00
2018-04-01T07:15:18.434Z,6.00
2018-04-01T07:17:45.784Z,5.90
2018-04-01T07:20:13.141Z,5.90
2018-04-01T07:22:40.610Z,5.80
2018-04-01T07:25:07.960Z,5.80
2018-04-01T07:27:35.305Z,5.70
2018-04-01T07:30:02.671Z,5.80
2018-04-01T07:32:30.027Z,5.80
2018-04-01T07:34:57.404Z,5.80
2018-04-01T07:37:24.769Z,5.80
2018-04-01T07:39:52.097Z,5.90
2018-04-01T07:42:19.494Z,5.90
2018-04-01T07:44:46.786Z,6.00
2018-04-01T07:47:14.148Z,6.00
2018-04-01T07:49:41.567Z,6.10
2018-04-01T07:52:08.933Z,6.20
2018-04-01T07:54:36.271Z,6.30
2018-04-01T07:57:03.619Z,6.30
2018-04-01T07:59:30.989Z,6.50
2018-04-01T08:01:58.331Z,6.50
2018-04-01T08:04:25.700Z,6.70
2018-04-01T08:06:53.053Z,6.70
2018-04-01T08:09:20.482Z,6.80
2018-04-01T08:11:47.935Z,6.80
2018-04-01T08:14:15.307Z,6.80
2018-04-01T08:16:42.666Z,6.90
2018-04-01T08:19:10.012Z,6.90
2018-04-01T08:21:37.372Z,6.80
2018-04-01T08:24:04.728Z,6.80
2018-04-01T08:26:32.091Z,6.80
2018-04-01T08:29:00.060Z,6.90
2018-04-01T08:31:27.422Z,6.90
2018-04-01T08:33:54.759Z,6.90
2018-04-01T08:36:22.385Z,6.90
2018-04-01T08:38:50.258Z,6.80
2018-04-01T08:41:17.662Z,6.80
2018-04-01T08:43:45.631Z,6.70
2018-04-01T08:46:12.980Z,6.60
2018-04-01T08:48:40.342Z,6.50
2018-04-01T08:51:07.709Z,6.50
2018-04-01T08:53:35.589Z,6.40
2018-04-01T08:56:02.948Z,6.30
2018-04-01T08:58:31.190Z,6.30
2018-04-01T09:00:58.546Z,6.20
2018-04-01T09:03:25.897Z,6.30
2018-04-01T09:05:54.046Z,6.20
2018-04-01T09:08:21.423Z,6.20
2018-04-01T09:10:48.777Z,6.20
2018-04-01T09:13:16.129Z,6.30
2018-04-01T09:15:44.291Z,6.30
2018-04-01T09:18:11.653Z,6.30
2018-04-01T09:20:39.077Z,6.30
2018-04-01T09:23:06.429Z,6.30
2018-04-01T09:25:35.318Z,6.40
2018-04-01T09:28:03.443Z,6.50
2018-04-01T09:30:30.787Z,6.50
2018-04-01T09:32:58.154Z,6.70
2018-04-01T09:35:25.556Z,6.80
2018-04-01T09:37:53.686Z,7.10
2018-04-01T09:40:21.029Z,7.00
2018-04-01T09:42:48.411Z,7.20
2018-04-01T09:45:15.860Z,7.30
2018-04-01T09:47:43.295Z,7.50
2018-04-01T09:50:10.753Z,7.60
2018-04-01T09:52:38.114Z,7.70
2018-04-01T09:55:05.455Z,7.80
2018-04-01T09:57:32.800Z,7.80
2018-04-01T10:00:00.769Z,7.80
2018-04-01T10:02:28.901Z,7.90
2018-04-01T10:05:12.808Z,7.90
2018-04-01T10:07:40.900Z,8.00
2018-04-01T10:10:09.004Z,8.20
2018-04-01T10:12:37.108Z,8.20
2018-04-01T10:15:05.201Z,8.20
2018-04-01T10:17:33.303Z,8.30
2018-04-01T10:20:01.443Z,8.40
2018-04-01T10:22:29.572Z,8.60
2018-04-01T10:24:57.741Z,8.60
2018-04-01T10:27:25.919Z,8.70
2018-04-01T10:29:54.012Z,8.80
2018-04-01T10:32:22.104Z,8.80
2018-04-01T10:34:50.203Z,9.00
2018-04-01T10:37:18.319Z,9.10
2018-04-01T10:39:46.419Z,9.30
2018-04-01T10:42:14.549Z,9.60
2018-04-01T10:44:42.752Z,9.90
2018-04-01T10:47:11.271Z,10.30
2018-04-01T10:49:39.374Z,10.50
2018-04-01T10:52:07.555Z,10.60
2018-04-01T10:54:34.913Z,10.50
2018-04-01T10:57:02.284Z,10.30
2018-04-01T10:59:29.684Z,9.90
2018-04-01T11:01:57.061Z,9.60
2018-04-01T11:04:25.087Z,9.40
2018-04-01T11:06:52.430Z,9.20
2018-04-01T11:09:19.807Z,9.10
2018-04-01T11:11:47.183Z,9.00
2018-04-01T11:14:14.549Z,8.90
2018-04-01T11:16:42.688Z,9.10
2018-04-01T11:19:10.049Z,9.10
2018-04-01T11:21:37.404Z,9.20
2018-04-01T11:24:04.903Z,9.40
2018-04-01T11:26:32.245Z,9.50
2018-04-01T11:28:59.603Z,9.70
2018-04-01T11:31:26.969Z,9.80
2018-04-01T11:33:54.328Z,10.10
2018-04-01T11:36:21.731Z,10.30
2018-04-01T11:38:49.087Z,10.30
2018-04-01T11:41:16.447Z,10.40
2018-04-01T11:43:43.802Z,10.40
2018-04-01T11:46:11.181Z,10.40
2018-04-01T11:48:38.542Z,10.40
2018-04-01T11:51:06.681Z,10.30
2018-04-01T11:53:34.093Z,10.30
2018-04-01T11:56:01.571Z,10.20
2018-04-01T11:58:28.972Z,10.10
2018-04-01T12:00:56.345Z,9.90
2018-04-01T12:03:23.684Z,9.70
2018-04-01T12:05:51.795Z,9.50
2018-04-01T12:08:19.181Z,9.50
2018-04-01T12:10:47.005Z,9.60
2018-04-01T12:13:14.348Z,9.70
2018-04-01T12:15:41.711Z,9.80
2018-04-01T12:18:09.073Z,9.80
2018-04-01T12:20:36.471Z,9.90
2018-04-01T12:23:03.825Z,9.90
2018-04-01T12:25:31.240Z,10.00
2018-04-01T12:27:58.596Z,10.30
2018-04-01T12:30:25.960Z,10.60
2018-04-01T12:32:53.411Z,10.70
2018-04-01T12:35:20.764Z,10.80
2018-04-01T12:37:48.123Z,10.80
2018-04-01T12:40:15.495Z,11.00
2018-04-01T12:42:42.851Z,11.30
2018-04-01T12:45:10.222Z,11.40
2018-04-01T12:47:37.690Z,11.70
2018-04-01T12:50:05.051Z,11.80
2018-04-01T12:52:33.228Z,11.90
2018-04-01T12:55:01.378Z,11.90
2018-04-01T12:57:33.302Z,11.90
2018-04-01T13:00:00.875Z,11.90
2018-04-01T13:02:29.416Z,11.90
2018-04-01T13:04:57.160Z,11.80
2018-04-01T13:07:25.277Z,11.70
2018-04-01T13:09:52.647Z,11.40
2018-04-01T13:12:19.998Z,11.20
2018-04-01T13:14:47.354Z,11.00
2018-04-01T13:17:14.737Z,10.90
2018-04-01T13:19:42.093Z,10.90
2018-04-01T13:22:09.859Z,11.00
2018-04-01T13:24:37.515Z,10.90
2018-04-01T13:27:04.879Z,10.80
2018-04-01T13:29:32.255Z,10.50
2018-04-01T13:31:59.631Z,9.80
2018-04-01T13:34:27.051Z,8.40
2018-04-01T13:36:54.407Z,7.10
2018-04-01T13:39:21.767Z,6.00
2018-04-01T13:41:49.129Z,5.30
2018-04-01T13:44:16.503Z,4.90
2018-04-01T13:46:43.896Z,4.60
2018-04-01T13:49:11.277Z,4.50
2018-04-01T13:51:38.759Z,4.60
2018-04-01T13:54:07.044Z,5.70
2018-04-01T13:56:35.316Z,6.00
2018-04-01T13:59:03.475Z,6.70
2018-04-01T14:01:30.857Z,6.60
2018-04-01T14:03:58.204Z,7.30
2018-04-01T14:06:25.566Z,8.00
2018-04-01T14:08:52.932Z,8.20
2018-04-01T14:11:20.292Z,8.20
2018-04-01T14:13:47.728Z,8.10
2018-04-01T14:16:16.239Z,8.20
2018-04-01T14:18:43.593Z,8.80
2018-04-01T14:21:10.976Z,9.30
2018-04-01T14:23:38.335Z,9.50
2018-04-01T14:26:05.710Z,9.50
2018-04-01T14:28:33.088Z,9.30
2018-04-01T14:31:00.440Z,9.10
2018-04-01T14:33:27.864Z,8.90
2018-04-01T14:35:55.669Z,8.70
2018-04-01T14:38:23.048Z,8.50
2018-04-01T14:40:50.415Z,8.30
2018-04-01T14:43:17.823Z,8.00
2018-04-01T14:45:45.933Z,7.70
2018-04-01T14:48:13.298Z,7.40
2018-04-01T14:50:40.665Z,7.10
2018-04-01T14:53:08.022Z,6.80
2018-04-01T14:55:35.393Z,6.70
2018-04-01T14:58:02.767Z,6.60
2018-04-01T15:00:30.165Z,6.50
2018-04-01T15:02:58.403Z,6.40
2018-04-01T15:05:25.846Z,6.40
2018-04-01T15:07:53.202Z,6.30
2018-04-01T15:10:21.328Z,6.40
2018-04-01T15:12:48.689Z,6.30
2018-04-01T15:15:16.041Z,6.30
2018-04-01T15:17:43.400Z,6.40
2018-04-01T15:20:10.757Z,6.50
2018-04-01T15:22:38.163Z,6.60
2018-04-01T15:25:05.542Z,7.00
2018-04-01T15:27:32.892Z,7.90
2018-04-01T15:30:00.269Z,8.90
2018-04-01T15:32:27.628Z,9.80
2018-04-01T15:34:55.354Z,10.40
2018-04-01T15:37:22.696Z,10.50
2018-04-01T15:39:50.106Z,10.00
2018-04-01T15:42:17.436Z,9.60
2018-04-01T15:44:44.796Z,9.30
2018-04-01T15:47:12.196Z,9.00
2018-04-01T15:49:39.543Z,8.70
2018-04-01T15:52:06.948Z,8.50
2018-04-01T15:54:34.251Z,8.40
2018-04-01T15:57:01.615Z,8.20
2018-04-01T15:59:28.963Z,8.10
2018-04-01T16:01:56.340Z,8.00
2018-04-01T16:04:23.689Z,8.00
2018-04-01T16:06:51.747Z,7.90
2018-04-01T16:09:19.872Z,7.90
2018-04-01T16:11:47.211Z,7.80
2018-04-01T16:14:14.571Z,7.90
2018-04-01T16:16:41.907Z,7.90
2018-04-01T16:19:09.330Z,7.90
2018-04-01T16:21:36.713Z,7.90
2018-04-01T16:24:05.823Z,7.80
2018-04-01T16:26:33.198Z,7.80
2018-04-01T16:29:01.013Z,7.80
2018-04-01T16:31:28.362Z,7.80
2018-04-01T16:33:56.506Z,7.80
2018-04-01T16:36:24.534Z,7.80
2018-04-01T16:38:51.985Z,7.80
2018-04-01T16:41:19.387Z,7.80
2018-04-01T16:43:46.960Z,7.80
2018-04-01T16:46:14.390Z,7.80
2018-04-01T16:48:42.471Z,7.60
2018-04-01T16:51:09.849Z,7.60
2018-04-01T16:53:37.188Z,7.50
2018-04-01T16:56:04.644Z,7.40
2018-04-01T16:58:32.000Z,7.30
2018-04-01T17:00:59.340Z,7.20
2018-04-01T17:03:26.688Z,7.00
2018-04-01T17:05:54.024Z,6.90
2018-04-01T17:08:21.378Z,6.80
2018-04-01T17:10:48.728Z,6.80
2018-04-01T17:13:16.108Z,6.70
2018-04-01T17:15:43.462Z,6.60
2018-04-01T17:18:10.826Z,6.60
2018-04-01T17:20:38.286Z,6.60
2018-04-01T17:23:22.926Z,6.60
2018-04-01T17:25:50.446Z,6.60
2018-04-01T17:28:18.822Z,6.50
2018-04-01T17:30:47.021Z,6.50
2018-04-01T17:33:14.445Z,6.40
2018-04-01T17:35:46.878Z,6.40
2018-04-01T17:38:14.273Z,6.30
2018-04-01T17:40:41.645Z,6.30
2018-04-01T17:43:09.095Z,6.30
2018-04-01T17:45:36.557Z,6.30
2018-04-01T17:48:03.999Z,6.30
2018-04-01T17:50:31.335Z,6.30
2018-04-01T17:52:58.694Z,6.20
2018-04-01T17:55:26.064Z,6.20
2018-04-01T17:57:54.230Z,6.20
2018-04-01T18:00:21.939Z,6.20
2018-04-01T18:02:49.861Z,6.20
2018-04-01T18:05:17.930Z,6.20
2018-04-01T18:07:45.691Z,6.20
2018-04-01T18:10:13.162Z,6.20
2018-04-01T18:12:40.508Z,6.10
2018-04-01T18:15:08.762Z,6.00
2018-04-01T18:17:36.139Z,5.90
2018-04-01T18:20:03.505Z,5.80
2018-04-01T18:22:31.631Z,5.60
2018-04-01T18:24:59.002Z,5.60
2018-04-01T18:27:26.354Z,5.50
2018-04-01T18:29:54.248Z,5.50
2018-04-01T18:32:21.624Z,5.50
2018-04-01T18:34:49.740Z,5.40
2018-04-01T18:37:17.096Z,5.40
2018-04-01T18:39:44.462Z,5.50
2018-04-01T18:42:12.346Z,5.50
2018-04-01T18:44:39.706Z,5.50
2018-04-01T18:47:07.073Z,5.40
2018-04-01T18:49:34.414Z,5.40
2018-04-01T18:52:01.828Z,5.40
2018-04-01T18:54:29.192Z,5.40
2018-04-01T18:56:56.540Z,5.50
2018-04-01T18:59:23.960Z,5.50
2018-04-01T19:01:51.333Z,5.60
2018-04-01T19:04:18.817Z,5.60
2018-04-01T19:06:46.175Z,5.60
2018-04-01T19:09:14.281Z,5.70
2018-04-01T19:11:42.417Z,5.70
2018-04-01T19:14:09.870Z,5.70
2018-04-01T19:16:52.799Z,5.70
2018-04-01T19:19:20.894Z,5.70
2018-04-01T19:21:48.999Z,5.60
2018-04-01T19:24:17.099Z,5.60
2018-04-01T19:26:45.187Z,5.60
2018-04-01T19:29:13.284Z,5.70
2018-04-01T19:31:41.877Z,5.70
2018-04-01T19:34:10.746Z,5.70
2018-04-01T19:36:38.830Z,5.70
2018-04-01T19:39:07.057Z,5.70
2018-04-01T19:41:35.259Z,5.70
2018-04-01T19:44:03.448Z,5.70
2018-04-01T19:46:31.530Z,5.70
2018-04-01T19:49:00.209Z,5.70
2018-04-01T19:51:28.352Z,5.70
2018-04-01T19:53:56.496Z,5.60
2018-04-01T19:56:25.020Z,5.60
2018-04-01T19:58:53.252Z,5.50
2018-04-01T20:01:21.371Z,5.60
2018-04-01T20:03:49.498Z,5.60
2018-04-01T20:06:17.727Z,5.60
2018-04-01T20:08:45.913Z,5.60
2018-04-01T20:11:13.997Z,5.70
2018-04-01T20:13:42.622Z,5.70
2018-04-01T20:16:10.792Z,5.80
2018-04-01T20:18:38.993Z,5.80
2018-04-01T20:21:08.513Z,5.90
2018-04-01T20:23:36.635Z,5.90
2018-04-01T20:26:04.743Z,6.00
2018-04-01T20:28:32.917Z,5.90
2018-04-01T20:31:01.052Z,6.00
2018-04-01T20:33:29.136Z,6.00
2018-04-01T20:35:57.494Z,6.00
2018-04-01T20:38:25.631Z,6.00
2018-04-01T20:40:53.773Z,6.00
2018-04-01T20:43:21.874Z,6.00
2018-04-01T20:45:50.044Z,6.00
2018-04-01T20:48:18.141Z,6.00
2018-04-01T20:50:46.294Z,6.00
2018-04-01T20:53:14.444Z,6.00
2018-04-01T20:55:42.528Z,6.00
2018-04-01T20:58:10.700Z,6.00
2018-04-01T21:00:38.793Z,6.00
2018-04-01T21:03:06.966Z,6.00
2018-04-01T21:05:35.051Z,6.10
2018-04-01T21:08:04.417Z,6.10
2018-04-01T21:10:33.278Z,6.00
2018-04-01T21:13:01.393Z,6.00
2018-04-01T21:15:29.511Z,6.00
2018-04-01T21:17:57.660Z,6.00
2018-04-01T21:20:25.784Z,6.00
2018-04-01T21:22:53.919Z,5.90
2018-04-01T21:25:22.021Z,5.90
2018-04-01T21:27:50.107Z,5.90
2018-04-01T21:30:18.208Z,5.90
2018-04-01T21:32:47.288Z,5.90
2018-04-01T21:35:15.387Z,5.90
2018-04-01T21:37:43.516Z,5.90
2018-04-01T21:40:11.681Z,5.90
2018-04-01T21:42:39.785Z,5.90
2018-04-01T21:45:07.879Z,5.90
2018-04-01T21:47:35.951Z,5.90
2018-04-01T21:50:04.098Z,5.90
2018-04-01T21:52:32.340Z,5.90
2018-04-01T21:55:00.477Z,5.90
2018-04-01T21:57:28.556Z,5.90
2018-04-01T21:59:56.691Z,5.90
2018-04-01T22:02:24.792Z,5.90
2018-04-01T22:04:52.870Z,6.00
2018-04-01T22:07:20.979Z,6.00
2018-04-01T22:09:49.825Z,6.00
2018-04-01T22:12:17.932Z,6.00
2018-04-01T22:14:46.078Z,6.00
2018-04-01T22:17:14.104Z,6.00
2018-04-01T22:19:42.187Z,6.00
2018-04-01T22:22:10.360Z,6.00
2018-04-01T22:24:38.650Z,6.00
2018-04-01T22:27:06.926Z,6.00
2018-04-01T22:29:35.114Z,6.00
2018-04-01T22:32:03.340Z,6.00
2018-04-01T22:34:31.555Z,6.00
2018-04-01T22:36:59.714Z,5.90
2018-04-01T22:39:27.808Z,5.90
2018-04-01T22:41:56.666Z,5.80
2018-04-01T22:44:24.750Z,5.80
2018-04-01T22:46:52.849Z,5.80
2018-04-01T22:49:21.097Z,5.70
2018-04-01T22:51:49.269Z,5.70
2018-04-01T22:54:17.343Z,5.70
2018-04-01T22:56:45.441Z,5.70
2018-04-01T22:59:13.527Z,5.70
2018-04-01T23:01:41.626Z,5.70
2018-04-01T23:04:09.735Z,5.70
2018-04-01T23:06:37.869Z,5.80
2018-04-01T23:09:06.102Z,5.80
2018-04-01T23:11:34.239Z,5.80
2018-04-01T23:14:02.345Z,5.90
2018-04-01T23:16:30.474Z,5.90
2018-04-01T23:18:58.557Z,5.90
2018-04-01T23:21:26.661Z,5.90
2018-04-01T23:23:54.761Z,5.90
2018-04-01T23:26:22.861Z,5.90
2018-04-01T23:28:50.948Z,5.90
2018-04-01T23:31:19.097Z,5.90
2018-04-01T23:33:47.193Z,5.90
2018-04-01T23:36:15.301Z,5.90
2018-04-01T23:38:43.406Z,5.90
2018-04-01T23:41:11.513Z,5.90
2018-04-01T23:43:39.621Z,5.90
2018-04-01T23:46:07.766Z,5.90
2018-04-01T23:48:35.880Z,5.90
2018-04-01T23:51:03.967Z,5.90
2018-04-01T23:53:32.070Z,5.90
2018-04-01T23:56:00.182Z,5.90
2018-04-01T23:58:28.268Z,5.90
